Time;durP1;ratioP1;P1;durP2;ratioP2;P2;SDS_P1;SDS_P2;PMS_P1;PMS_P2;Temp;Humidity;BMP_temperature;BMP_pressure;BME280_temperature;BME280_humidity;BME280_pressure;Samples;Min_cycle;Max_cycle;Signal;HPM_P1;HPM_P2
2022/02/16 00:01:12;;;;;;;0.70;0.60;;;;;;;6.62;64.45;98530.03;5095882;28;41805;-78
2022/02/16 00:03:41;;;;;;;0.63;0.63;;;;;;;6.63;64.38;98522.97;5091384;28;42035;-79
2022/02/16 00:06:08;;;;;;;0.67;0.67;;;;;;;6.59;64.29;98524.91;5074644;28;41108;-79
2022/02/16 00:08:36;;;;;;;2.17;0.97;;;;;;;6.64;64.47;98509.75;5082652;28;38860;-79
2022/02/16 00:11:03;;;;;;;1.27;0.80;;;;;;;6.58;64.61;98520.56;5099400;28;42684;-79
2022/02/16 00:13:31;;;;;;;0.90;0.77;;;;;;;6.65;64.52;98521.97;5074159;28;42893;-78
2022/02/16 00:15:58;;;;;;;2.10;0.70;;;;;;;6.66;64.17;98520.19;5091521;28;42414;-79
2022/02/16 00:18:26;;;;;;;2.20;0.80;;;;;;;6.56;64.42;98496.13;5095942;28;39981;-79
2022/02/16 00:20:55;;;;;;;1.00;0.87;;;;;;;6.65;64.35;98506.19;5081156;28;40398;-79
2022/02/16 00:23:22;;;;;;;0.60;0.60;;;;;;;6.65;64.25;98500.94;5090159;28;42861;-79
2022/02/16 00:25:50;;;;;;;0.90;0.80;;;;;;;6.62;64.22;98502.84;5092495;28;42231;-79
2022/02/16 08:57:03;;;;;;;0.40;0.40;;;;;;;6.94;87.38;97845.75;5171607;27;20548;-79
2022/02/16 08:59:31;;;;;;;0.53;0.33;;;;;;;7.44;86.50;97840.69;5149597;27;38906;-82
2022/02/16 09:01:59;;;;;;;0.47;0.47;;;;;;;7.99;83.33;97844.91;5149707;27;42039;-83
2022/02/16 09:04:26;;;;;;;0.37;0.30;;;;;;;8.35;81.23;97840.72;5131341;27;42905;-81
2022/02/16 09:09:40;;;;;;;0.33;0.30;;;;;;;8.70;77.84;97841.72;5149091;27;40098;-79
2022/02/16 09:12:10;;;;;;;0.30;0.30;;;;;;;8.79;77.34;97846.31;5150237;27;40438;-81
2022/02/16 09:14:38;;;;;;;0.40;0.40;;;;;;;8.93;76.64;97837.41;5187907;27;43197;-82
2022/02/16 09:17:06;;;;;;;0.30;0.30;;;;;;;9.02;75.85;97824.38;5169998;27;41968;-81
2022/02/16 09:19:34;;;;;;;0.40;0.40;;;;;;;9.17;74.85;97827.72;5187773;27;40044;-79
2022/02/16 09:22:01;;;;;;;0.50;0.40;;;;;;;9.36;75.03;97819.28;5170047;27;42089;-79
2022/02/16 09:24:29;;;;;;;0.33;0.33;;;;;;;9.46;73.96;97825.56;5152209;27;43074;-78
2022/02/16 09:26:57;;;;;;;0.30;0.30;;;;;;;9.50;74.18;97831.47;5188280;27;41941;-77
2022/02/16 09:29:26;;;;;;;0.50;0.40;;;;;;;9.44;74.17;97821.34;5169737;27;39874;-78
2022/02/16 09:31:54;;;;;;;0.30;0.30;;;;;;;9.57;74.01;97832.69;5152851;27;42358;-79
2022/02/16 09:34:22;;;;;;;0.50;0.40;;;;;;;9.63;73.31;97822.53;5169725;27;41486;-79
2022/02/16 09:36:50;;;;;;;0.30;0.30;;;;;;;9.63;72.52;97822.53;5152554;27;41808;-78
2022/02/16 09:39:17;;;;;;;0.30;0.30;;;;;;;9.64;72.69;97826.81;5169378;27;38571;-79
2022/02/16 09:41:46;;;;;;;0.40;0.40;;;;;;;9.68;72.40;97823.00;5169728;27;41718;-77
2022/02/16 09:44:16;;;;;;;0.40;0.40;;;;;;;9.80;72.11;97825.69;5169400;27;42686;-78
2022/02/16 09:46:45;;;;;;;0.20;0.20;;;;;;;9.90;71.58;97818.72;5152182;27;40980;-78
2022/02/16 09:49:13;;;;;;;0.30;0.30;;;;;;;9.94;71.01;97830.75;5170353;27;40164;-77
2022/02/16 09:51:42;;;;;;;0.37;0.37;;;;;;;9.85;71.21;97824.38;5169276;27;42422;-79
2022/02/16 09:54:12;;;;;;;0.40;0.40;;;;;;;9.96;70.76;97802.41;5169157;27;43075;-79
2022/02/16 09:56:42;;;;;;;0.40;0.40;;;;;;;10.16;70.76;97820.22;5151380;27;43652;-78
2022/02/16 09:59:11;;;;;;;0.30;0.30;;;;;;;10.27;69.60;97812.31;5170598;27;39799;-82
2022/02/16 10:01:57;;;;;;;0.40;0.40;;;;;;;10.20;69.46;97789.97;5151841;27;40671;-79
2022/02/16 10:04:25;;;;;;;0.40;0.40;;;;;;;10.42;69.42;97821.72;5169062;27;45228;-80
2022/02/16 10:06:53;;;;;;;0.50;0.50;;;;;;;10.48;68.88;97815.09;5146546;27;42737;-79
2022/02/16 10:09:27;;;;;;;0.40;0.40;;;;;;;10.53;68.71;97796.19;5155361;27;40007;-79
2022/02/16 10:11:57;;;;;;;0.30;0.30;;;;;;;10.49;69.04;97792.13;5138150;27;40447;-80
2022/02/16 10:14:27;;;;;;;0.43;0.37;;;;;;;10.33;70.14;97793.34;5137146;27;41831;-78
2022/02/16 10:17:02;;;;;;;0.40;0.40;;;;;;;10.26;70.10;97804.53;5155646;27;42294;-80
2022/02/16 10:19:47;;;;;;;0.30;0.30;;;;;;;10.11;71.00;97787.16;5155094;27;38705;-82
2022/02/16 10:22:14;;;;;;;0.40;0.40;;;;;;;9.92;71.06;97761.28;5155386;27;40464;-78
2022/02/16 10:24:43;;;;;;;0.47;0.40;;;;;;;10.23;71.11;97797.66;5155226;27;43817;-80
2022/02/16 10:27:12;;;;;;;1.03;0.50;;;;;;;10.25;70.86;97792.25;5154948;27;42403;-81
2022/02/16 10:29:40;;;;;;;0.30;0.30;;;;;;;10.25;71.39;97779.88;5155856;27;39920;-80
2022/02/16 10:32:11;;;;;;;0.70;0.70;;;;;;;10.20;71.50;97763.50;5137516;27;40862;-78
2022/02/16 10:34:51;;;;;;;0.30;0.30;;;;;;;10.30;71.82;97767.09;5137637;27;41397;-80
2022/02/16 10:37:21;;;;;;;0.40;0.37;;;;;;;10.36;71.40;97758.69;5154592;27;42642;-79
2022/02/16 10:40:02;;;;;;;0.50;0.50;;;;;;;10.50;71.58;97759.41;5172304;27;40692;-78
2022/02/16 10:42:37;;;;;;;0.60;0.30;;;;;;;10.50;71.71;97756.75;5137635;27;42026;-78
2022/02/16 10:45:07;;;;;;;0.93;0.27;;;;;;;10.51;71.25;97745.22;5156135;27;42708;-79
2022/02/16 10:47:54;;;;;;;0.40;0.40;;;;;;;10.36;71.89;97742.81;5154062;27;41411;-80
2022/02/16 10:50:24;;;;;;;0.30;0.30;;;;;;;10.28;72.00;97729.34;5155066;27;38970;-84
2022/02/16 10:52:55;;;;;;;0.60;0.60;;;;;;;10.42;72.02;97742.31;5137219;27;41022;-79
2022/02/16 10:55:40;;;;;;;0.50;0.43;;;;;;;10.46;71.91;97728.84;5154669;27;42254;-81
2022/02/16 10:58:10;;;;;;;0.33;0.30;;;;;;;10.35;72.03;97724.41;5152417;27;42274;-79
2022/02/16 11:00:40;;;;;;;0.40;0.30;;;;;;;10.33;72.51;97713.94;5154462;27;40078;-79
2022/02/16 11:03:11;;;;;;;0.40;0.40;;;;;;;10.36;72.86;97705.78;5151080;27;42292;-78
2022/02/16 11:05:44;;;;;;;0.40;0.40;;;;;;;10.35;72.77;97709.38;5154025;27;41678;-80
2022/02/16 11:08:14;;;;;;;0.30;0.30;;;;;;;10.38;73.01;97703.84;5136794;27;40822;-79
2022/02/16 11:10:45;;;;;;;0.40;0.40;;;;;;;10.50;72.87;97720.53;5136898;27;39935;-82
2022/02/16 11:13:15;;;;;;;0.20;0.20;;;;;;;10.45;72.78;97725.34;5168144;27;42617;-77
2022/02/16 11:15:44;;;;;;;0.67;0.50;;;;;;;10.20;73.96;97715.88;5154780;27;43425;-78
2022/02/16 11:18:15;;;;;;;0.87;0.60;;;;;;;10.20;74.25;97705.28;5135861;27;41194;-78
2022/02/16 11:20:43;;;;;;;0.60;0.40;;;;;;;10.01;75.04;97683.88;5153770;27;39628;-77
2022/02/16 11:23:13;;;;;;;0.77;0.60;;;;;;;10.16;75.87;97706.47;5153543;27;41061;-78
2022/02/16 11:25:43;;;;;;;0.63;0.63;;;;;;;10.18;75.65;97679.88;5153787;27;42226;-78
2022/02/16 11:28:13;;;;;;;0.30;0.30;;;;;;;10.21;75.89;97696.41;5151366;27;42560;-79
2022/02/16 11:30:44;;;;;;;0.40;0.40;;;;;;;10.26;75.85;97701.34;5136199;27;38577;-81
2022/02/16 11:33:16;;;;;;;0.50;0.40;;;;;;;10.23;76.29;97694.47;5153836;27;41794;-78
2022/02/16 11:35:47;;;;;;;1.33;0.47;;;;;;;10.20;76.75;97686.78;5136481;27;43995;-78
2022/02/16 11:38:16;;;;;;;0.47;0.40;;;;;;;10.25;77.46;97675.84;5136144;27;42447;-80
2022/02/16 11:40:46;;;;;;;0.93;0.60;;;;;;;10.34;77.18;97665.34;5153289;27;38906;-79
2022/02/16 11:43:16;;;;;;;0.60;0.60;;;;;;;10.27;77.50;97669.44;5153597;27;41880;-84
2022/02/16 11:45:48;;;;;;;0.53;0.53;;;;;;;10.23;77.98;97683.91;5153673;27;43798;-79
2022/02/16 11:48:37;;;;;;;0.30;0.30;;;;;;;10.23;78.06;97699.78;5153519;27;41225;-82
2022/02/16 11:51:33;;;;;;;0.30;0.30;;;;;;;10.14;78.68;97705.72;5154163;27;38884;-80
2022/02/16 11:54:34;;;;;;;0.50;0.50;;;;;;;10.14;79.09;97699.63;5151655;27;42630;-80
2022/02/16 11:57:38;;;;;;;1.70;0.93;;;;;;;10.17;79.75;97689.63;5131421;27;44269;-81
2022/02/16 12:00:11;;;;;;;0.40;0.40;;;;;;;10.20;79.58;97689.41;5153224;27;42100;-84
2022/02/16 12:03:20;;;;;;;0.40;0.40;;;;;;;10.19;79.96;97671.88;5151977;27;39753;-83
2022/02/16 12:05:55;;;;;;;0.90;0.90;;;;;;;10.16;79.69;97676.53;5057133;28;41016;-82
2022/02/16 12:08:25;;;;;;;0.50;0.50;;;;;;;9.94;79.85;97633.25;5074056;28;41723;-83
2022/02/16 12:10:54;;;;;;;0.30;0.30;;;;;;;10.17;79.84;97664.97;5098148;27;41854;-78
2022/02/16 12:13:32;;;;;;;0.40;0.40;;;;;;;10.18;79.83;97654.31;5135382;27;38866;-82
2022/02/16 12:16:02;;;;;;;0.50;0.50;;;;;;;10.14;80.43;97647.53;5136011;27;42284;-82
2022/02/16 12:18:30;;;;;;;0.40;0.40;;;;;;;10.02;79.80;97611.50;5157767;27;43569;-84
2022/02/16 12:21:00;;;;;;;0.40;0.40;;;;;;;10.00;80.17;97609.00;5136051;27;43180;-79
2022/02/16 12:23:29;;;;;;;0.30;0.30;;;;;;;10.13;79.86;97618.59;5134482;27;41036;-82
2022/02/16 12:26:06;;;;;;;0.67;0.37;;;;;;;10.10;80.05;97638.19;5153215;27;40658;-80
2022/02/16 12:28:57;;;;;;;0.50;0.50;;;;;;;10.00;79.86;97630.16;5167243;27;42712;-79
2022/02/16 12:31:27;;;;;;;0.43;0.43;;;;;;;10.05;80.35;97627.13;5153271;27;41521;-82
2022/02/16 12:34:00;;;;;;;0.30;0.30;;;;;;;10.19;79.72;97632.19;5136178;27;40004;-83
2022/02/16 12:36:30;;;;;;;0.30;0.30;;;;;;;10.17;79.46;97614.72;5150512;27;42521;-79
2022/02/16 12:39:01;;;;;;;0.40;0.40;;;;;;;10.24;79.08;97611.50;5135301;27;43341;-79
2022/02/16 12:41:29;;;;;;;0.40;0.40;;;;;;;10.37;78.67;97601.59;5135430;27;41137;-81
2022/02/16 12:43:59;;;;;;;0.57;0.40;;;;;;;10.38;78.22;97597.16;5129931;27;39981;-80
2022/02/16 12:46:30;;;;;;;0.30;0.30;;;;;;;10.59;77.98;97600.66;5135106;27;40696;-80
2022/02/16 12:48:58;;;;;;;0.30;0.30;;;;;;;10.58;77.20;97603.44;5149175;27;43792;-79
2022/02/16 12:51:30;;;;;;;0.40;0.40;;;;;;;10.50;77.06;97574.13;5136112;27;41222;-82
2022/02/16 12:54:03;;;;;;;0.70;0.50;;;;;;;10.63;77.27;97577.44;5145248;27;40010;-81
2022/02/16 12:56:40;;;;;;;0.40;0.40;;;;;;;10.62;76.94;97566.00;5151036;27;41550;-82
2022/02/16 12:59:16;;;;;;;1.90;0.33;;;;;;;10.65;76.44;97563.09;5152491;27;41672;-81
2022/02/16 13:01:45;;;;;;;0.50;0.50;;;;;;;10.52;76.33;97540.41;5152128;27;42557;-80
2022/02/16 13:04:14;;;;;;;0.40;0.40;;;;;;;10.68;76.32;97578.72;5152336;27;39941;-80
2022/02/16 13:06:45;;;;;;;1.07;0.50;;;;;;;10.63;76.41;97558.91;5176461;27;41888;-79
2022/02/16 13:09:17;;;;;;;0.30;0.30;;;;;;;10.65;76.25;97562.25;5140672;27;43103;-80
2022/02/16 13:11:50;;;;;;;0.40;0.40;;;;;;;10.59;76.52;97545.09;5135108;27;40811;-80
2022/02/16 13:14:20;;;;;;;0.40;0.40;;;;;;;10.62;76.43;97536.06;5166312;27;39912;-82
2022/02/16 13:16:57;;;;;;;0.40;0.40;;;;;;;10.72;76.07;97555.50;5132922;27;40640;-84
2022/02/16 13:19:47;;;;;;;0.73;0.43;;;;;;;10.72;76.53;97558.13;5151509;27;42531;-82
2022/02/16 13:22:19;;;;;;;0.30;0.30;;;;;;;10.56;76.59;97515.38;5166048;27;42917;-85
2022/02/16 13:24:55;;;;;;;0.60;0.50;;;;;;;10.67;76.54;97533.84;5118237;27;40568;-81
2022/02/16 13:27:23;;;;;;;0.50;0.50;;;;;;;10.73;76.55;97542.13;5151749;27;41002;-84
2022/02/16 13:30:02;;;;;;;1.60;0.50;;;;;;;10.80;76.72;97551.22;5151609;27;44086;-81
2022/02/16 13:32:31;;;;;;;0.37;0.37;;;;;;;10.79;76.63;97544.25;5134103;27;40989;-84
2022/02/16 13:35:00;;;;;;;0.40;0.40;;;;;;;10.78;76.74;97537.25;5134544;27;40255;-80
2022/02/16 13:37:29;;;;;;;0.40;0.40;;;;;;;10.77;76.92;97516.19;5133287;27;40588;-81
2022/02/16 13:40:09;;;;;;;0.43;0.43;;;;;;;10.87;76.68;97540.97;5134271;27;41846;-78
2022/02/16 13:42:37;;;;;;;1.03;0.80;;;;;;;10.90;77.16;97548.63;5150726;27;42484;-80
2022/02/16 13:45:05;;;;;;;0.83;0.63;;;;;;;10.83;77.10;97542.19;5155092;27;38949;-80
2022/02/16 13:47:33;;;;;;;0.67;0.60;;;;;;;10.94;76.68;97542.09;5144483;27;41868;-81
2022/02/16 13:50:00;;;;;;;0.83;0.70;;;;;;;10.89;77.15;97533.69;5154978;27;42778;-81
2022/02/16 13:52:34;;;;;;;0.50;0.50;;;;;;;10.86;78.39;97544.56;5172030;27;42794;-81
2022/02/16 13:55:02;;;;;;;0.50;0.50;;;;;;;10.76;78.84;97522.47;5154890;27;40000;-83
2022/02/16 13:57:34;;;;;;;0.67;0.67;;;;;;;10.81;78.38;97528.22;5143882;27;41202;-80
2022/02/16 14:00:09;;;;;;;0.70;0.70;;;;;;;10.85;78.80;97537.59;5156074;27;42691;-81
2022/02/16 14:03:04;;;;;;;0.60;0.60;;;;;;;10.84;79.71;97558.91;5136928;27;42818;-84
2022/02/16 14:05:33;;;;;;;0.50;0.50;;;;;;;10.68;79.90;97546.94;5153935;27;41057;-87
2022/02/16 14:08:04;;;;;;;0.60;0.60;;;;;;;10.78;79.93;97558.44;5137450;27;41236;-87
2022/02/16 14:10:34;;;;;;;0.60;0.60;;;;;;;10.73;80.33;97559.81;5153902;27;42741;-89
2022/02/16 14:13:03;;;;;;;0.60;0.60;;;;;;;10.78;80.06;97558.44;5141423;27;41044;-90
2022/02/16 14:15:31;;;;;;;0.70;0.70;;;;;;;10.48;79.75;97504.59;5155314;27;39850;-86
2022/02/16 14:17:58;;;;;;;0.57;0.57;;;;;;;10.57;79.66;97527.63;5136654;27;41928;-84
2022/02/16 14:20:27;;;;;;;0.60;0.60;;;;;;;10.74;79.44;97540.31;5137327;27;41706;-84
2022/02/16 14:22:55;;;;;;;0.70;0.70;;;;;;;10.99;78.84;97560.28;5136749;27;41113;-82
2022/02/16 14:25:24;;;;;;;0.70;0.70;;;;;;;10.74;78.65;97498.78;5155069;27;39776;-87
2022/02/16 14:27:51;;;;;;;0.60;0.60;;;;;;;11.00;78.48;97530.97;5136891;27;41497;-84
2022/02/16 14:30:20;;;;;;;0.63;0.63;;;;;;;10.93;78.35;97508.66;5137762;27;43420;-85
2022/02/16 14:32:49;;;;;;;0.70;0.70;;;;;;;10.84;78.26;97482.97;5154368;27;43280;-82
2022/02/16 14:35:17;;;;;;;0.57;0.57;;;;;;;11.08;78.01;97517.94;5155243;27;39057;-84
2022/02/16 14:37:46;;;;;;;0.60;0.60;;;;;;;11.23;77.83;97520.25;5136581;27;40397;-85
2022/02/16 14:40:16;;;;;;;0.73;0.73;;;;;;;11.27;77.81;97529.59;5137485;27;42337;-84
2022/02/16 14:42:46;;;;;;;0.97;0.70;;;;;;;10.88;77.96;97452.56;5136811;27;40960;-82
2022/02/16 14:45:16;;;;;;;0.60;0.60;;;;;;;10.88;78.04;97478.25;5137621;27;39391;-83
2022/02/16 14:47:47;;;;;;;0.77;0.77;;;;;;;11.24;78.14;97522.75;5136688;27;41635;-84
2022/02/16 14:50:16;;;;;;;1.37;0.67;;;;;;;11.13;78.16;97499.81;5155090;27;41984;-83
2022/02/16 14:52:44;;;;;;;0.70;0.70;;;;;;;11.29;78.05;97527.66;5121565;27;42117;-86
2022/02/16 14:55:13;;;;;;;0.60;0.60;;;;;;;11.24;77.85;97500.72;5154609;27;39596;-89
2022/02/16 14:57:42;;;;;;;0.50;0.50;;;;;;;11.21;78.02;97495.69;5154114;27;42513;-83
2022/02/16 15:00:12;;;;;;;0.60;0.60;;;;;;;11.32;77.72;97499.06;5154743;27;42873;-83
2022/02/16 15:02:41;;;;;;;0.80;0.80;;;;;;;11.37;77.52;97490.72;5153181;27;42136;-83
2022/02/16 15:05:10;;;;;;;0.50;0.50;;;;;;;11.40;77.80;97490.44;5135782;27;38853;-83
2022/02/16 15:07:38;;;;;;;0.60;0.60;;;;;;;11.38;77.72;97481.78;5135793;27;40942;-86
2022/02/16 15:10:06;;;;;;;0.60;0.60;;;;;;;11.33;77.77;97471.59;5154377;27;42120;-87
2022/02/16 15:12:36;;;;;;;0.60;0.60;;;;;;;11.46;78.06;97500.53;5135463;27;42200;-82
2022/02/16 15:15:05;;;;;;;0.60;0.60;;;;;;;11.37;78.04;97477.47;5137128;27;38624;-78
2022/02/16 15:17:34;;;;;;;0.63;0.63;;;;;;;11.45;78.35;97488.25;5152859;27;41585;-82
2022/02/16 15:20:02;;;;;;;0.90;0.67;;;;;;;11.44;78.14;97486.56;5136678;27;41808;-84
2022/02/16 15:22:29;;;;;;;0.83;0.83;;;;;;;11.53;78.03;97491.03;5151717;27;42539;-81
2022/02/16 15:25:00;;;;;;;0.63;0.63;;;;;;;11.60;77.51;97508.09;5136603;27;39149;-80
2022/02/16 15:27:28;;;;;;;0.50;0.50;;;;;;;11.65;77.51;97518.28;5151264;27;42653;-81
2022/02/16 15:29:56;;;;;;;0.80;0.80;;;;;;;11.58;77.58;97498.59;5154533;27;43939;-82
2022/02/16 15:32:23;;;;;;;0.70;0.70;;;;;;;11.72;77.50;97528.25;5153360;27;43238;-82
2022/02/16 15:34:52;;;;;;;0.60;0.60;;;;;;;11.68;77.35;97516.22;5136755;27;39132;-83
2022/02/16 15:37:20;;;;;;;0.57;0.57;;;;;;;11.72;77.23;97525.59;5151466;27;40923;-83
2022/02/16 15:39:48;;;;;;;1.47;0.50;;;;;;;11.72;77.47;97533.53;5153557;27;43631;-81
2022/02/16 15:42:16;;;;;;;0.77;0.77;;;;;;;11.80;77.52;97528.41;5152722;27;43738;-82
2022/02/16 15:44:44;;;;;;;0.63;0.63;;;;;;;11.82;77.40;97542.38;5154015;27;39961;-82
2022/02/16 15:47:12;;;;;;;0.73;0.73;;;;;;;11.70;77.28;97527.53;5151220;27;41809;-83
2022/02/16 15:49:40;;;;;;;0.93;0.70;;;;;;;11.80;77.21;97551.44;5154499;27;43785;-81
2022/02/16 15:52:09;;;;;;;0.63;0.60;;;;;;;11.61;77.22;97519.56;5152659;27;42483;-85
2022/02/16 15:54:37;;;;;;;0.67;0.67;;;;;;;11.55;77.26;97522.72;5153162;27;40696;-81
2022/02/16 15:57:06;;;;;;;0.70;0.70;;;;;;;11.65;77.89;97548.28;5135544;27;41898;-84
2022/02/16 15:59:34;;;;;;;0.70;0.70;;;;;;;11.80;77.60;97565.56;5152804;27;44349;-82
2022/02/16 16:02:02;;;;;;;1.70;0.80;;;;;;;11.71;77.61;97550.44;5152781;27;43634;-86
2022/02/16 16:04:30;;;;;;;0.90;0.90;;;;;;;11.76;77.65;97550.88;5153762;27;39927;-82
2022/02/16 16:06:59;;;;;;;0.87;0.87;;;;;;;11.86;77.44;97550.94;5134923;27;42133;-83
2022/02/16 16:09:28;;;;;;;0.60;0.60;;;;;;;11.91;77.59;97558.47;5153859;27;43926;-81
2022/02/16 16:11:59;;;;;;;0.90;0.90;;;;;;;11.85;77.57;97552.75;5135295;27;41099;-82
2022/02/16 16:14:26;;;;;;;0.60;0.60;;;;;;;11.91;77.35;97559.28;5142817;27;39974;-83
2022/02/16 16:16:54;;;;;;;0.67;0.67;;;;;;;11.92;77.09;97557.50;5152692;27;41530;-82
2022/02/16 16:19:22;;;;;;;0.80;0.70;;;;;;;11.91;77.19;97545.19;5152388;27;43627;-83
2022/02/16 16:21:50;;;;;;;0.53;0.53;;;;;;;11.96;76.83;97529.72;5152282;27;42735;-83
2022/02/16 16:24:18;;;;;;;0.60;0.60;;;;;;;12.00;76.99;97525.78;5135011;27;38920;-82
2022/02/16 16:26:48;;;;;;;0.60;0.60;;;;;;;11.96;76.93;97529.72;5135205;27;42213;-84
